CheckWX is a tool to help pilots better visualize weather data.  It is not intended as a substitute for an official pre-flight weather briefing.

19:51:30 UTC

SCIP METAR
Mataveri Airport
Isla De Pascua, Chile
Current

52 mins ago

SCIP 201900Z 23010KT 9999 SCT020 20/10 Q1019 NOSIG
Observed
Jun-20 @ 19:00 UTC
Wind
  • 230° at 10 KTS
Visibility
10,000+ meters
Flight Rules
VFR
Cloud Levels
  • Scattered at 2,000' AGL
Temperature
20°C / 68°F
Dewpoint
10°C / 50°F
Humidity
53%
Altimeter
30.09" Hg
Pressure
1018.92 hPa
Previous

2 hours ago

SCIP 201800Z 23008KT 9999 SCT020 19/10 Q1019 NOSIG
Observed
Jun-20 @ 18:00 UTC
Wind
  • 230° at 8 KTS
Visibility
10,000+ meters
Flight Rules
VFR
Cloud Levels
  • Scattered at 2,000' AGL
Temperature
19°C / 66°F
Dewpoint
10°C / 50°F
Humidity
56%
Altimeter
30.09" Hg
Pressure
1018.92 hPa
Previous

3 hours ago

SCIP 201700Z 22006KT 150V260 9999 SCT020 SCT040 18/11 Q1019 NOSIG
Observed
Jun-20 @ 17:00 UTC
Wind
  • 220° at 6 KTS
Visibility
10,000+ meters
Flight Rules
VFR
Cloud Levels
  • Scattered at 2,000' AGL
  • Scattered at 4,000' AGL
Temperature
18°C / 64°F
Dewpoint
11°C / 52°F
Humidity
64%
Altimeter
30.09" Hg
Pressure
1018.92 hPa